Zim Pacific — A8OZ4 — position and weather

sailwx.info

Track history (hours):
 
Tides and Currents Weather Stations Pressure Air Temp Water Temp Dewpoint Dewpoint Depression Visibility Wind Speed Wind Dir Waves Ship Positions

Zim Pacific

Last reported at 2015-Oct-09 12:33 UTC. Time now 2016-May-06 11:12 UTC.
Position N 03°15' E 100°40'.
Warning: this ship's position is months out of date.

Length 254 m; draft 7.4 m.

Type: Ship. MMSI: 636016512.

Date/timePositionNaut miles runAvg speedWind from/ knotsBaromVisibWave heightAir tempDewpointWater temp
2015-Oct-09 12:33N 03°15' E 100°40'1413.6
2015-Oct-09 11:33N 03°04' E 100°48'1313.2
2015-Oct-09 10:33N 02°54' E 100°57'1211.6
2015-Oct-09 09:33N 02°48' E 101°07'10 9.8
2015-Oct-09 08:33N 02°53' E 101°16'4 2.9
2015-Oct-09 07:12N 02°56' E 101°18'0 0.0
2015-Oct-09 04:29N 02°56' E 101°18'0 0.0
2015-Oct-09 03:23N 02°56' E 101°18'0 0.0
2015-Oct-09 01:13N 02°56' E 101°18'0 0.0
2015-Oct-09 00:23N 02°56' E 101°18'0 0.0
2015-Oct-08 22:13N 02°56' E 101°18'0 0.0
2015-Oct-08 21:31N 02°56' E 101°18'0 0.0
2015-Oct-08 19:11N 02°56' E 101°18'0 0.0
2015-Oct-08 18:32N 02°56' E 101°18'5 5.2
2015-Oct-08 17:31N 02°51' E 101°15'5 1.2
2015-Oct-08 13:22N 02°46' E 101°16'0 0.1
2015-Oct-08 10:33N 02°46' E 101°16'0 0.1
2015-Oct-08 07:33N 02°46' E 101°16'0 0.1
2015-Oct-08 04:23N 02°46' E 101°16'0 0.1
2015-Oct-08 03:31N 02°46' E 101°16'0 0.0
2015-Oct-08 02:28N 02°46' E 101°16'0 0.0
2015-Oct-08 01:33N 02°46' E 101°16'0 0.0
2015-Oct-08 00:33N 02°46' E 101°16'0 0.1
2015-Oct-07 23:32N 02°46' E 101°16'0 0.1
2015-Oct-07 22:32N 02°46' E 101°16'0 0.1
2015-Oct-07 21:31N 02°46' E 101°16'0 0.1
2015-Oct-07 20:31N 02°46' E 101°16'0 0.1
2015-Oct-07 19:31N 02°46' E 101°16'0 0.0
2015-Oct-07 18:21N 02°46' E 101°16'13 7.0
2015-Oct-07 16:33N 02°38' E 101°26'1312.9
2015-Oct-07 15:33N 02°31' E 101°36'1313.1
2015-Oct-07 14:33N 02°22' E 101°46'12812.5
2015-Oct-07 04:16N 01°12' E 103°34'912.9
2015-Oct-07 03:33N 01°09' E 103°43'1010.4
2015-Oct-07 02:33N 01°14' E 103°52'2 2.4
2015-Oct-07 01:32N 01°16' E 103°50'0 0.0
2015-Oct-07 00:29N 01°16' E 103°50'0 0.0
2015-Oct-06 23:31N 01°16' E 103°50'0 0.0
2015-Oct-06 22:28N 01°16' E 103°50'0 0.0
2015-Oct-06 21:30N 01°16' E 103°50'0 0.0
2015-Oct-06 20:33N 01°16' E 103°50'0 0.0
2015-Oct-06 19:11N 01°16' E 103°50'1 1.7
2015-Oct-06 18:33N 01°15' E 103°51'7 7.3
2015-Oct-06 17:33N 01°15' E 103°58'1615.4
2015-Oct-06 16:32N 01°17' E 104°14'  
2015-Oct-03 02:30N 22°07' E 113°51'1212.9
2015-Oct-03 01:33N 22°19' E 113°48'10 0.9
2015-Oct-02 14:08N 22°28' E 113°45'814.6
2015-Oct-02 13:33N 22°20' E 113°48'1211.8
2015-Oct-02 12:32N 22°08' E 113°48'32 7.6
2015-Oct-02 08:20N 21°59' E 114°21'14011.8
2015-Oct-01 20:31N 22°47' E 116°44'7811.0
2015-Oct-01 13:24N 23°33' E 117°52'1011.2
2015-Oct-01 12:32N 23°40' E 118°00'2411.9
2015-Oct-01 10:31N 23°56' E 118°19'1312.2
2015-Oct-01 09:27N 24°05' E 118°30'1112.6
2015-Oct-01 08:32N 24°13' E 118°39'1412.5
2015-Oct-01 07:26N 24°22' E 118°50'1313.3
2015-Oct-01 06:28N 24°31' E 119°00'1313.6
2015-Oct-01 05:29N 24°40' E 119°11'4213.4
2015-Oct-01 02:23N 25°07' E 119°45'13713.3
2015-Sep-30 16:07N 26°57' E 121°17'813.7
2015-Sep-30 15:34N 27°03' E 121°21'1413.8
2015-Sep-30 14:34N 27°15' E 121°29'14813.4
2015-Sep-30 03:32N 29°35' E 122°23'1412.2
2015-Sep-30 02:23N 29°47' E 122°15'911.3
2015-Sep-30 01:33N 29°55' E 122°09'1310.9
2015-Sep-30 00:22N 29°57' E 121°55'4 0.6
2015-Sep-29 17:31N 29°57' E 121°50'0 0.0
2015-Sep-29 13:17N 29°57' E 121°50'  
Track history (hours):
 
Tides and Currents Weather Stations Pressure Air Temp Water Temp Dewpoint Dewpoint Depression Visibility Wind Speed Wind Dir Waves Ship Positions

Zim Pacific

Last reported at 2015-Oct-09 12:33 UTC. Time now 2016-May-06 11:12 UTC.
Position N 03°15' E 100°40'.
Warning: this ship's position is months out of date.

Length 254 m; draft 7.4 m.

Type: Ship. MMSI: 636016512.

Date/timePositionNaut miles runAvg speedWind from/ knotsBaromVisibWave heightAir tempDewpointWater temp
2015-Oct-09 12:33N 03°15' E 100°40'1413.6
2015-Oct-09 11:33N 03°04' E 100°48'1313.2
2015-Oct-09 10:33N 02°54' E 100°57'1211.6
2015-Oct-09 09:33N 02°48' E 101°07'10 9.8
2015-Oct-09 08:33N 02°53' E 101°16'4 2.9
2015-Oct-09 07:12N 02°56' E 101°18'0 0.0
2015-Oct-09 04:29N 02°56' E 101°18'0 0.0
2015-Oct-09 03:23N 02°56' E 101°18'0 0.0
2015-Oct-09 01:13N 02°56' E 101°18'0 0.0
2015-Oct-09 00:23N 02°56' E 101°18'0 0.0
2015-Oct-08 22:13N 02°56' E 101°18'0 0.0
2015-Oct-08 21:31N 02°56' E 101°18'0 0.0
2015-Oct-08 19:11N 02°56' E 101°18'0 0.0
2015-Oct-08 18:32N 02°56' E 101°18'5 5.2
2015-Oct-08 17:31N 02°51' E 101°15'5 1.2
2015-Oct-08 13:22N 02°46' E 101°16'0 0.1
2015-Oct-08 10:33N 02°46' E 101°16'0 0.1
2015-Oct-08 07:33N 02°46' E 101°16'0 0.1
2015-Oct-08 04:23N 02°46' E 101°16'0 0.1
2015-Oct-08 03:31N 02°46' E 101°16'0 0.0
2015-Oct-08 02:28N 02°46' E 101°16'0 0.0
2015-Oct-08 01:33N 02°46' E 101°16'0 0.0
2015-Oct-08 00:33N 02°46' E 101°16'0 0.1
2015-Oct-07 23:32N 02°46' E 101°16'0 0.1
2015-Oct-07 22:32N 02°46' E 101°16'0 0.1
2015-Oct-07 21:31N 02°46' E 101°16'0 0.1
2015-Oct-07 20:31N 02°46' E 101°16'0 0.1
2015-Oct-07 19:31N 02°46' E 101°16'0 0.0
2015-Oct-07 18:21N 02°46' E 101°16'13 7.0
2015-Oct-07 16:33N 02°38' E 101°26'1312.9
2015-Oct-07 15:33N 02°31' E 101°36'1313.1
2015-Oct-07 14:33N 02°22' E 101°46'12812.5
2015-Oct-07 04:16N 01°12' E 103°34'912.9
2015-Oct-07 03:33N 01°09' E 103°43'1010.4
2015-Oct-07 02:33N 01°14' E 103°52'2 2.4
2015-Oct-07 01:32N 01°16' E 103°50'0 0.0
2015-Oct-07 00:29N 01°16' E 103°50'0 0.0
2015-Oct-06 23:31N 01°16' E 103°50'0 0.0
2015-Oct-06 22:28N 01°16' E 103°50'0 0.0
2015-Oct-06 21:30N 01°16' E 103°50'0 0.0
2015-Oct-06 20:33N 01°16' E 103°50'0 0.0
2015-Oct-06 19:11N 01°16' E 103°50'1 1.7
2015-Oct-06 18:33N 01°15' E 103°51'7 7.3
2015-Oct-06 17:33N 01°15' E 103°58'1615.4
2015-Oct-06 16:32N 01°17' E 104°14'  
2015-Oct-03 02:30N 22°07' E 113°51'1212.9
2015-Oct-03 01:33N 22°19' E 113°48'10 0.9
2015-Oct-02 14:08N 22°28' E 113°45'814.6
2015-Oct-02 13:33N 22°20' E 113°48'1211.8
2015-Oct-02 12:32N 22°08' E 113°48'32 7.6
2015-Oct-02 08:20N 21°59' E 114°21'14011.8
2015-Oct-01 20:31N 22°47' E 116°44'7811.0
2015-Oct-01 13:24N 23°33' E 117°52'1011.2
2015-Oct-01 12:32N 23°40' E 118°00'2411.9
2015-Oct-01 10:31N 23°56' E 118°19'1312.2
2015-Oct-01 09:27N 24°05' E 118°30'1112.6
2015-Oct-01 08:32N 24°13' E 118°39'1412.5
2015-Oct-01 07:26N 24°22' E 118°50'1313.3
2015-Oct-01 06:28N 24°31' E 119°00'1313.6
2015-Oct-01 05:29N 24°40' E 119°11'4213.4
2015-Oct-01 02:23N 25°07' E 119°45'13713.3
2015-Sep-30 16:07N 26°57' E 121°17'813.7
2015-Sep-30 15:34N 27°03' E 121°21'1413.8
2015-Sep-30 14:34N 27°15' E 121°29'14813.4
2015-Sep-30 03:32N 29°35' E 122°23'1412.2
2015-Sep-30 02:23N 29°47' E 122°15'911.3
2015-Sep-30 01:33N 29°55' E 122°09'1310.9
2015-Sep-30 00:22N 29°57' E 121°55'4 0.6
2015-Sep-29 17:31N 29°57' E 121°50'0 0.0
2015-Sep-29 13:17N 29°57' E 121°50'  

Dump ship's entire track history